Airfield :
LOGIN :

Register | Disclaimer

   EN    FR    IT 

 










Legend :    VFR   Marginal VFR   IFR   Intensive IFR   Very Intensive IFR
Visi :
Ceiling :
>= 8 km
>= 3000ft
5 to 8 km
1000 to 3000 ft
1500m to 5 km
500 to 1000 ft
800 to 1500m
200 to 500 ft
< 800m
< 200 ft
Symbols :   Thunderstorms  Fog  Heavy snow  Heavy precipitations  Wind > 20 kt
SIGMETs :     Misc.  Thunderstorms  Icing  Turbulence  Mountain Waves  Volcanic Ashes






- Airport Elevation : 306 ft
- IATA code : EMA


EGNX - Nottingham East Midlands

CURRENT METAR :
  • 071620Z 29009KT 9999 SCT043 12/00 Q1015

EXPIRED METARs :
  • 071550Z 29011KT 9999 SCT043 11/01 Q1015
  • 071520Z 27010KT 250V320 9999 SCT045 12/02 Q1015
  • 071450Z 28009KT 250V340 9999 SCT048 12/01 Q1015
  • 071420Z 28009KT 250V310 9999 SCT048 12/00 Q1015
  • 071350Z 30010KT 260V330 9999 SCT048 12/M01 Q1015

TAF TAF EGNX
Valid from the 07 at 12:00 until the 08 at 12:00 UTC


071056Z 0712/0812 26010KT 9999 FEW045
PROB30
TEMPO 0712/0717 9000 -SHRA
BECMG 0715/0718 VRB03KT
BECMG 0802/0805 12010KT
TEMPO 0803/0812 6000 RA BKN008
TEMPO 0806/0809 13015G25KT
PROB40
TEMPO 0806/0812 3000 +RA BKN004
BECMG 0809/0812 20015G25KT
ATIS : +44 1332 852 852 (ext 3201)



MET'MAP, your aeronautical weather chart ! - Copyright ORBIFLY December 2007 - Disclaimer

ORBIFLY MET'MAP TEAM :

Programming & Development : Alexandra Zaïnal
Concept & original design : Baudouin d'Aumeries
Assistance for programming : Marc-Olivier Méhu
Technical & hardware support : Manuel Goepfert

Contact : metmap@orbifly.com




SOURCES & CREDITS :

   NOAA